createdAt,value
2019-05-07T05:02:43.590Z,92.50
2019-05-07T05:05:14.561Z,92.30
2019-05-07T05:07:45.630Z,92.10
2019-05-07T05:10:15.725Z,92.00
2019-05-07T05:12:46.792Z,92.30
2019-05-07T05:15:17.473Z,92.30
2019-05-07T05:17:50.924Z,91.80
2019-05-07T05:20:22.166Z,91.60
2019-05-07T05:23:02.749Z,91.70
2019-05-07T05:25:37.270Z,91.50
2019-05-07T05:28:07.246Z,91.30
2019-05-07T05:30:38.838Z,91.30
2019-05-07T05:33:08.807Z,91.10
2019-05-07T05:35:38.966Z,90.40
2019-05-07T05:38:08.913Z,90.40
2019-05-07T05:40:38.896Z,90.20
2019-05-07T05:43:12.607Z,89.80
2019-05-07T05:45:46.750Z,89.50
2019-05-07T05:48:16.717Z,89.00
2019-05-07T05:50:48.356Z,88.10
2019-05-07T05:53:38.228Z,87.80
2019-05-07T05:56:11.466Z,86.50
2019-05-07T05:58:59.523Z,85.10
2019-05-07T06:01:34.635Z,85.10
2019-05-07T06:04:08.655Z,84.10
2019-05-07T06:06:42.929Z,83.80
2019-05-07T06:09:29.377Z,82.50
2019-05-07T06:12:06.961Z,81.30
2019-05-07T06:14:42.466Z,80.50
2019-05-07T06:17:14.311Z,80.00
2019-05-07T06:20:02.958Z,79.60
2019-05-07T06:22:52.833Z,78.60
2019-05-07T06:25:24.943Z,78.70
2019-05-07T06:27:55.273Z,78.10
2019-05-07T06:30:25.225Z,77.60
2019-05-07T06:32:55.195Z,76.40
2019-05-07T06:35:26.212Z,75.70
2019-05-07T06:37:56.191Z,75.70
2019-05-07T06:40:33.756Z,73.20
2019-05-07T06:43:12.546Z,72.10
2019-05-07T06:45:44.716Z,72.40
2019-05-07T06:48:14.691Z,70.90
2019-05-07T06:50:56.713Z,68.60
2019-05-07T06:53:33.295Z,68.00
2019-05-07T06:56:03.521Z,68.00
2019-05-07T06:58:37.693Z,66.60
2019-05-07T07:01:15.241Z,66.30
2019-05-07T07:04:04.960Z,65.30
2019-05-07T07:06:48.577Z,64.20
2019-05-07T07:09:22.970Z,64.20
2019-05-07T07:11:57.433Z,64.60
2019-05-07T07:14:27.491Z,65.00
2019-05-07T07:16:57.443Z,66.20
2019-05-07T07:19:28.390Z,61.50
2019-05-07T07:21:58.337Z,61.40
2019-05-07T07:24:28.316Z,60.80
2019-05-07T07:26:58.271Z,60.90
2019-05-07T07:29:29.896Z,61.90
2019-05-07T07:32:02.364Z,63.10
2019-05-07T07:34:35.276Z,60.70
2019-05-07T07:37:22.948Z,59.40
2019-05-07T07:39:54.598Z,60.50
2019-05-07T07:42:24.565Z,60.20
2019-05-07T07:45:12.955Z,59.40
2019-05-07T07:47:42.907Z,60.00
2019-05-07T07:50:13.437Z,60.00
2019-05-07T07:52:43.729Z,59.00
2019-05-07T07:55:16.885Z,58.40
2019-05-07T07:57:51.973Z,57.80
2019-05-07T08:00:30.059Z,57.80
2019-05-07T08:03:02.640Z,57.90
2019-05-07T08:05:32.698Z,56.10
2019-05-07T08:08:02.749Z,56.30
2019-05-07T08:10:32.867Z,54.60
2019-05-07T08:13:02.819Z,54.70
2019-05-07T08:15:33.174Z,54.80
2019-05-07T08:18:03.496Z,53.60
2019-05-07T08:20:33.499Z,54.90
2019-05-07T08:23:03.447Z,53.10
2019-05-07T08:25:48.846Z,51.90
2019-05-07T08:28:19.835Z,53.10
2019-05-07T08:30:54.205Z,52.80
2019-05-07T08:33:25.796Z,53.00
2019-05-07T08:36:12.081Z,52.10
2019-05-07T08:38:57.624Z,53.50
2019-05-07T08:41:27.947Z,52.60
2019-05-07T08:44:10.637Z,51.00
2019-05-07T08:46:35.537Z,48.30
2019-05-07T08:49:07.233Z,48.90
2019-05-07T08:51:37.190Z,49.60
2019-05-07T08:54:07.164Z,51.00
2019-05-07T08:56:37.979Z,48.10
2019-05-07T08:59:08.707Z,48.20
2019-05-07T09:01:40.352Z,46.80
2019-05-07T09:04:10.312Z,44.80
2019-05-07T09:06:40.282Z,45.00
2019-05-07T09:09:13.304Z,47.30
2019-05-07T09:11:43.536Z,46.70
2019-05-07T09:14:13.661Z,45.40
2019-05-07T09:16:43.642Z,44.30
2019-05-07T09:19:13.604Z,44.20
2019-05-07T09:21:44.568Z,44.00
2019-05-07T09:24:14.523Z,44.20
2019-05-07T09:26:52.425Z,43.50
2019-05-07T09:29:27.005Z,43.80
2019-05-07T09:32:15.553Z,41.20
2019-05-07T09:34:47.173Z,41.20
2019-05-07T09:37:22.629Z,38.80
2019-05-07T09:39:52.665Z,40.70
2019-05-07T09:42:22.714Z,39.80
2019-05-07T09:44:53.006Z,40.00
2019-05-07T09:47:23.408Z,41.20
2019-05-07T09:50:03.870Z,38.30
2019-05-07T09:52:24.964Z,39.10
2019-05-07T09:54:54.947Z,40.40
2019-05-07T09:57:30.407Z,40.20
2019-05-07T09:59:56.576Z,38.80
2019-05-07T10:02:26.824Z,38.70
2019-05-07T10:04:56.778Z,39.00
2019-05-07T10:07:26.745Z,38.40
2019-05-07T10:09:56.782Z,39.50
2019-05-07T10:12:28.380Z,40.20
2019-05-07T10:14:58.812Z,38.80
2019-05-07T10:17:43.396Z,38.50
2019-05-07T10:20:21.669Z,41.00
2019-05-07T10:22:45.879Z,38.90
2019-05-07T10:25:15.920Z,39.60
2019-05-07T10:27:45.980Z,37.60
2019-05-07T10:30:16.393Z,37.20
2019-05-07T10:35:58.476Z,38.40
2019-05-07T10:38:28.673Z,38.90
2019-05-07T10:40:59.092Z,37.10
2019-05-07T10:43:29.256Z,37.00
2019-05-07T10:46:02.384Z,37.60
2019-05-07T10:48:50.877Z,38.20
2019-05-07T10:51:21.805Z,37.90
2019-05-07T10:53:51.991Z,38.40
2019-05-07T10:56:22.365Z,40.00
2019-05-07T10:58:52.640Z,36.70
2019-05-07T11:01:24.147Z,31.20
2019-05-07T11:03:54.272Z,29.00
2019-05-07T11:06:24.338Z,27.10
2019-05-07T11:08:54.278Z,29.30
2019-05-07T11:11:24.216Z,31.40
2019-05-07T11:13:56.123Z,28.60
2019-05-07T11:16:27.426Z,23.90
2019-05-07T11:18:57.410Z,24.90
2019-05-07T11:21:30.271Z,25.60
2019-05-07T11:24:02.883Z,27.50
2019-05-07T11:26:32.971Z,29.70
2019-05-07T11:29:04.148Z,32.50
2019-05-07T11:31:34.217Z,33.50
2019-05-07T11:34:04.264Z,33.10
2019-05-07T11:36:34.420Z,34.30
2019-05-07T11:39:06.544Z,34.20
2019-05-07T11:41:39.259Z,33.50
2019-05-07T11:44:12.428Z,30.80
2019-05-07T11:47:00.942Z,32.20
2019-05-07T11:49:49.879Z,31.20
2019-05-07T11:52:22.828Z,31.40
2019-05-07T11:54:52.823Z,33.10
2019-05-07T11:57:22.805Z,34.20
2019-05-07T11:59:54.396Z,33.10
2019-05-07T12:02:24.586Z,30.20
2019-05-07T12:04:54.489Z,32.00
2019-05-07T12:07:24.487Z,32.30
2019-05-07T12:09:54.436Z,30.00
2019-05-07T12:12:24.405Z,31.30
2019-05-07T12:14:54.399Z,31.10
2019-05-07T12:17:24.351Z,31.30
2019-05-07T12:19:54.309Z,33.00
2019-05-07T12:22:42.470Z,32.50
2019-05-07T12:25:12.802Z,33.60
2019-05-07T12:27:42.760Z,33.80
2019-05-07T12:30:15.440Z,34.10
2019-05-07T12:33:03.276Z,33.80
2019-05-07T12:35:33.514Z,31.70
2019-05-07T12:38:03.487Z,31.10
2019-05-07T12:40:33.672Z,31.20
2019-05-07T12:43:03.642Z,32.10
2019-05-07T12:45:33.863Z,33.20
2019-05-07T12:48:03.844Z,34.40
2019-05-07T12:50:33.869Z,34.60
2019-05-07T12:53:22.422Z,36.30
2019-05-07T12:55:56.896Z,35.50
2019-05-07T12:58:27.150Z,36.10
2019-05-07T13:00:58.742Z,36.30
2019-05-07T13:03:39.474Z,36.30
2019-05-07T13:06:11.657Z,36.60
2019-05-07T13:08:42.086Z,33.70
2019-05-07T13:11:13.258Z,30.80
2019-05-07T13:13:43.328Z,31.30
2019-05-07T13:16:13.392Z,31.80
2019-05-07T13:18:43.275Z,33.30
2019-05-07T13:21:13.225Z,34.10
2019-05-07T13:23:43.200Z,34.50
2019-05-07T13:26:13.317Z,34.70
2019-05-07T13:28:44.370Z,35.90
2019-05-07T13:31:15.315Z,34.10
2019-05-07T13:33:46.497Z,35.00
2019-05-07T13:38:48.233Z,72.50
2019-05-07T13:41:35.934Z,46.70
2019-05-07T13:44:12.381Z,35.90
2019-05-07T13:46:44.938Z,36.20
2019-05-07T13:49:14.834Z,35.10
2019-05-07T13:51:45.404Z,34.80
2019-05-07T13:54:15.428Z,35.10
2019-05-07T13:56:45.753Z,35.90
2019-05-07T13:59:15.770Z,35.90
2019-05-07T14:01:47.430Z,34.90
2019-05-07T14:04:17.369Z,34.80
2019-05-07T14:06:47.602Z,34.50
2019-05-07T14:09:24.226Z,33.60
2019-05-07T14:11:53.682Z,33.10
2019-05-07T14:14:23.684Z,32.00
2019-05-07T14:16:53.681Z,31.30
2019-05-07T14:19:23.650Z,31.20
2019-05-07T14:21:53.660Z,32.10
2019-05-07T14:24:23.615Z,32.50
2019-05-07T14:26:53.596Z,33.30
2019-05-07T14:29:24.804Z,32.80
2019-05-07T14:32:02.613Z,33.70
2019-05-07T14:34:37.207Z,33.80
2019-05-07T14:37:09.259Z,33.10
2019-05-07T14:39:39.406Z,32.90
2019-05-07T14:42:13.630Z,32.30
2019-05-07T14:44:52.620Z,33.00
2019-05-07T14:47:22.534Z,32.70
2019-05-07T14:49:53.754Z,31.50
2019-05-07T14:52:32.287Z,31.50
2019-05-07T14:54:55.450Z,31.00
2019-05-07T14:57:25.579Z,28.40
2019-05-07T14:59:55.732Z,28.30
2019-05-07T15:02:25.810Z,29.40
2019-05-07T15:04:55.758Z,28.80
2019-05-07T15:07:25.830Z,29.70
2019-05-07T15:09:56.337Z,30.40
2019-05-07T15:12:26.525Z,30.60
2019-05-07T15:14:57.061Z,31.50
2019-05-07T15:17:29.375Z,32.20
2019-05-07T15:19:59.718Z,32.10
2019-05-07T15:22:45.453Z,33.30
2019-05-07T15:25:04.782Z,33.00
2019-05-07T15:27:35.735Z,33.30
2019-05-07T15:30:06.778Z,32.90
2019-05-07T15:32:37.318Z,33.30
2019-05-07T15:35:07.776Z,33.00
2019-05-07T15:37:38.150Z,33.60
2019-05-07T15:40:08.925Z,33.50
2019-05-07T15:42:39.587Z,34.10
2019-05-07T15:45:09.801Z,34.80
2019-05-07T15:47:42.125Z,34.80
2019-05-07T15:50:12.945Z,34.30
2019-05-07T15:52:58.107Z,32.70
2019-05-07T15:55:22.585Z,32.30
2019-05-07T15:57:53.010Z,33.50
2019-05-07T16:00:28.371Z,32.00
2019-05-07T16:03:02.534Z,33.30
2019-05-07T16:05:32.702Z,33.30
2019-05-07T16:08:04.140Z,33.80
2019-05-07T16:10:34.988Z,33.50
2019-05-07T16:13:06.234Z,33.40
2019-05-07T16:15:37.894Z,33.40
2019-05-07T16:18:13.258Z,32.90
2019-05-07T16:20:44.402Z,33.90
2019-05-07T16:23:18.158Z,34.10
2019-05-07T16:25:49.011Z,33.60
2019-05-07T16:28:21.784Z,34.00
2019-05-07T16:30:53.240Z,32.70
2019-05-07T16:33:24.795Z,31.80
2019-05-07T16:35:55.321Z,32.60
2019-05-07T16:38:25.850Z,32.40
2019-05-07T16:40:56.377Z,34.40
2019-05-07T16:43:27.928Z,33.90
2019-05-07T16:45:58.456Z,33.80
2019-05-07T16:48:30.110Z,33.70
2019-05-07T16:51:02.211Z,33.10
2019-05-07T16:53:33.079Z,34.70
2019-05-07T16:56:04.665Z,33.90
2019-05-07T16:58:36.730Z,33.60
2019-05-07T17:01:08.793Z,33.90
2019-05-07T17:03:42.681Z,33.90
2019-05-07T17:06:13.536Z,33.60
2019-05-07T17:08:45.703Z,33.60
2019-05-07T17:11:16.444Z,33.70
2019-05-07T17:13:46.964Z,33.90
2019-05-07T17:16:17.492Z,34.40
2019-05-07T17:18:48.531Z,33.90
2019-05-07T17:21:21.649Z,33.20
2019-05-07T17:23:53.685Z,33.90
2019-05-07T17:26:25.647Z,34.20
2019-05-07T17:28:56.685Z,34.50
2019-05-07T17:31:28.966Z,34.30
2019-05-07T17:33:59.583Z,34.80
2019-05-07T17:36:32.828Z,35.50
2019-05-07T17:39:05.964Z,35.50
2019-05-07T17:41:37.313Z,35.40
2019-05-07T17:44:08.149Z,35.60
2019-05-07T17:46:39.289Z,36.00
2019-05-07T17:49:11.993Z,36.10
2019-05-07T17:51:47.365Z,35.50
2019-05-07T17:54:18.145Z,36.80
2019-05-07T17:56:48.748Z,37.10
2019-05-07T17:59:20.845Z,37.30
2019-05-07T18:02:01.921Z,37.70
2019-05-07T18:04:47.698Z,38.10
2019-05-07T18:07:06.452Z,38.60
2019-05-07T18:09:38.789Z,39.20
2019-05-07T18:12:09.353Z,40.60
2019-05-07T18:14:42.229Z,40.60
2019-05-07T18:17:16.705Z,40.80
2019-05-07T18:19:49.418Z,40.70
2019-05-07T18:22:22.182Z,41.70
2019-05-07T18:24:58.792Z,42.00
2019-05-07T18:27:32.846Z,42.60
2019-05-07T18:30:05.382Z,43.30
2019-05-07T18:32:37.743Z,43.80
2019-05-07T18:35:12.485Z,44.40
2019-05-07T18:37:52.503Z,45.60
2019-05-07T18:40:24.815Z,46.10
2019-05-07T18:42:57.569Z,46.40
2019-05-07T18:45:31.555Z,47.00
2019-05-07T18:48:03.748Z,47.10
2019-05-07T18:50:37.347Z,47.60
2019-05-07T18:53:12.338Z,48.40
2019-05-07T18:55:45.777Z,49.10
2019-05-07T18:58:17.943Z,49.70
2019-05-07T19:01:02.680Z,49.90
2019-05-07T19:03:36.195Z,50.60
2019-05-07T19:06:13.423Z,51.10
2019-05-07T19:08:44.595Z,51.50
2019-05-07T19:11:15.261Z,52.20
2019-05-07T19:13:45.993Z,52.70
2019-05-07T19:16:19.608Z,53.80
2019-05-07T19:18:51.555Z,55.30
2019-05-07T19:21:23.823Z,56.00
2019-05-07T19:23:56.849Z,56.60
2019-05-07T19:26:32.149Z,56.80
2019-05-07T19:29:02.885Z,57.60
2019-05-07T19:31:33.651Z,57.50
2019-05-07T19:34:04.865Z,57.20
2019-05-07T19:36:36.925Z,56.80
2019-05-07T19:39:09.195Z,56.90
2019-05-07T19:41:42.849Z,57.60
2019-05-07T19:44:14.891Z,57.80
2019-05-07T19:46:46.716Z,57.90
2019-05-07T19:49:19.036Z,59.00
2019-05-07T19:51:52.794Z,59.20
2019-05-07T19:54:23.526Z,59.20
2019-05-07T19:56:54.360Z,59.50
2019-05-07T19:59:24.958Z,60.10
2019-05-07T20:02:03.504Z,59.80
2019-05-07T20:04:34.239Z,60.60
2019-05-07T20:07:05.893Z,61.20
2019-05-07T20:09:48.812Z,61.20
2019-05-07T20:12:19.749Z,62.40
2019-05-07T20:14:51.755Z,61.60
2019-05-07T20:17:22.341Z,61.70
2019-05-07T20:19:54.110Z,61.80
2019-05-07T20:22:24.728Z,61.80
2019-05-07T20:24:55.463Z,63.60
2019-05-07T20:27:25.988Z,64.80
2019-05-07T20:29:56.620Z,65.90
2019-05-07T20:32:28.890Z,65.80
2019-05-07T20:35:02.712Z,65.10
2019-05-07T20:37:33.223Z,65.50
2019-05-07T20:40:04.574Z,66.00
2019-05-07T20:42:37.803Z,68.40
2019-05-07T20:45:08.594Z,67.90
2019-05-07T20:47:39.328Z,69.00
2019-05-07T20:50:12.732Z,70.00
2019-05-07T20:52:43.765Z,70.80
2019-05-07T20:55:35.590Z,71.10
2019-05-07T20:58:06.221Z,71.00
2019-05-07T21:00:36.956Z,70.20
2019-05-07T21:03:19.976Z,68.40
2019-05-07T21:05:52.951Z,68.10
2019-05-07T21:08:25.230Z,69.00
2019-05-07T21:10:55.860Z,70.10
2019-05-07T21:13:31.431Z,69.60
2019-05-07T21:15:58.757Z,68.50
2019-05-07T21:18:29.287Z,69.50
2019-05-07T21:21:02.183Z,68.90
2019-05-07T21:23:33.107Z,68.50
2019-05-07T21:26:06.190Z,70.00
2019-05-07T21:28:36.827Z,69.70
